Time;durP1;ratioP1;P1;durP2;ratioP2;P2;SDS_P1;SDS_P2;PMS_P1;PMS_P2;Temp;Humidity;BMP_temperature;BMP_pressure;BME280_temperature;BME280_humidity;BME280_pressure;Samples;Min_cycle;Max_cycle;Signal;HPM_P1;HPM_P2
2022/02/26 00:01:25;;;;;;;25.70;12.58;;;;;;;3.72;64.97;101250.70;1609527;88;27467;-79
2022/02/26 00:03:51;;;;;;;23.70;11.38;;;;;;;3.73;65.09;101257.67;1624043;87;25838;-79
2022/02/26 00:06:17;;;;;;;29.50;13.85;;;;;;;3.76;65.07;101258.75;1627146;87;25823;-78
2022/02/26 00:08:44;;;;;;;24.82;11.83;;;;;;;3.81;65.17;101262.69;1623035;87;25924;-80
2022/02/26 00:11:12;;;;;;;24.23;11.45;;;;;;;3.87;65.07;101263.50;1610341;88;26647;-79
2022/02/26 00:13:38;;;;;;;28.15;12.30;;;;;;;3.87;65.03;101262.69;1621462;87;28077;-79
2022/02/26 00:16:05;;;;;;;31.45;13.72;;;;;;;3.88;65.09;101268.33;1607164;88;26699;-79
2022/02/26 00:18:31;;;;;;;30.68;14.10;;;;;;;3.90;65.20;101274.34;1624042;86;25849;-79
2022/02/26 00:20:58;;;;;;;28.23;12.43;;;;;;;3.94;65.23;101270.45;1626756;87;25740;-79
2022/02/26 00:23:24;;;;;;;32.63;13.55;;;;;;;3.94;65.15;101285.03;1622273;87;25997;-79
2022/02/26 00:25:51;;;;;;;31.73;13.25;;;;;;;3.98;65.24;101280.34;1622695;87;27517;-79
2022/02/26 00:28:18;;;;;;;27.07;13.38;;;;;;;3.99;65.27;101276.70;1605919;86;25967;-78
2022/02/26 00:30:44;;;;;;;35.13;15.10;;;;;;;4.01;65.20;101280.91;1611015;88;25411;-79
2022/02/26 00:33:13;;;;;;;37.38;17.77;;;;;;;4.04;65.32;101282.47;1624884;87;26594;-79
2022/02/26 00:35:42;;;;;;;27.93;13.78;;;;;;;4.06;65.24;101285.36;1601199;88;25878;-79
2022/02/26 00:38:08;;;;;;;32.93;13.32;;;;;;;4.09;65.30;101289.53;1601597;88;27490;-78
2022/02/26 00:40:34;;;;;;;28.07;13.60;;;;;;;4.04;65.14;101285.97;1615817;87;25986;-78
2022/02/26 00:43:02;;;;;;;26.87;13.45;;;;;;;4.01;65.21;101291.52;1627110;86;25558;-79
2022/02/26 00:45:29;;;;;;;29.07;12.95;;;;;;;3.99;65.37;101293.93;1613772;87;26502;-79
2022/02/26 00:47:56;;;;;;;32.63;14.15;;;;;;;3.98;65.47;101298.39;1627661;86;25822;-80
2022/02/26 00:50:22;;;;;;;31.52;14.13;;;;;;;3.98;65.40;101298.39;1611705;87;27474;-79
2022/02/26 00:52:48;;;;;;;33.10;14.78;;;;;;;4.01;65.51;101297.30;1624461;87;25896;-79
2022/02/26 00:55:15;;;;;;;29.87;14.00;;;;;;;4.00;65.42;101299.09;1622510;87;25863;-79
2022/02/26 00:57:41;;;;;;;30.97;13.38;;;;;;;4.00;65.50;101304.40;1596362;88;26580;-79
2022/02/26 01:00:11;;;;;;;31.42;15.63;;;;;;;4.02;65.48;101298.48;1597348;88;25935;-79
2022/02/26 01:02:37;;;;;;;32.30;15.90;;;;;;;4.03;65.58;101292.70;1602958;88;27626;-79
2022/02/26 01:05:05;;;;;;;31.33;14.63;;;;;;;4.05;65.56;101302.22;1609656;87;25802;-79
2022/02/26 01:07:31;;;;;;;37.50;15.72;;;;;;;4.07;65.51;101295.45;1595166;88;26701;-79
2022/02/26 01:09:57;;;;;;;34.30;16.15;;;;;;;4.07;65.66;101300.75;1603143;87;25825;-80
2022/02/26 01:12:24;;;;;;;34.45;14.10;;;;;;;4.06;65.88;101303.91;1602480;88;26001;-79
2022/02/26 01:14:51;;;;;;;28.70;14.05;;;;;;;4.03;66.03;101301.51;1594817;88;27488;-79
2022/02/26 01:17:17;;;;;;;30.10;13.13;;;;;;;4.00;66.21;101307.56;1606434;88;26633;-78
2022/02/26 01:19:44;;;;;;;34.58;13.43;;;;;;;3.98;66.40;101308.98;1606432;87;25603;-79
2022/02/26 01:22:10;;;;;;;31.02;15.40;;;;;;;3.96;66.58;101309.60;1623449;87;25863;-80
2022/02/26 01:24:37;;;;;;;27.55;14.25;;;;;;;3.96;66.63;101310.11;1609118;87;25975;-78
2022/02/26 01:27:04;;;;;;;33.48;15.80;;;;;;;3.95;66.71;101311.06;1616698;87;27449;-79
2022/02/26 01:29:31;;;;;;;37.80;16.02;;;;;;;3.92;66.79;101320.10;1619783;87;25922;-78
2022/02/26 01:31:57;;;;;;;33.58;15.03;;;;;;;3.89;66.85;101315.08;1616185;87;25856;-78
2022/02/26 01:34:24;;;;;;;38.53;16.57;;;;;;;3.82;66.89;101324.02;1618957;87;25801;-79
2022/02/26 01:36:50;;;;;;;35.90;15.45;;;;;;;3.77;66.96;101326.19;1600186;87;26106;-79
2022/02/26 01:39:23;;;;;;;32.65;14.90;;;;;;;3.72;66.95;101327.03;1618722;87;45429;-79
2022/02/26 01:41:46;;;;;;;32.40;15.35;;;;;;;3.68;66.91;101320.78;1613651;87;25666;-78
2022/02/26 01:44:12;;;;;;;28.70;15.45;;;;;;;3.61;67.00;101331.54;1610722;87;26211;-79
2022/02/26 01:46:39;;;;;;;28.92;14.15;;;;;;;3.55;67.15;101330.20;1610922;88;25910;-79
2022/02/26 01:49:06;;;;;;;33.10;14.53;;;;;;;3.51;67.18;101336.72;1626403;87;25743;-79
2022/02/26 01:51:32;;;;;;;31.07;14.60;;;;;;;3.46;67.13;101332.30;1623776;87;27635;-79
2022/02/26 01:53:59;;;;;;;31.00;15.80;;;;;;;3.42;67.00;101337.97;1620318;87;25779;-78
2022/02/26 01:56:25;;;;;;;35.90;14.78;;;;;;;3.38;66.94;101333.88;1610917;88;26458;-79
2022/02/26 01:58:51;;;;;;;32.70;15.10;;;;;;;3.36;67.08;101339.78;1621984;87;25839;-79
2022/02/26 02:01:17;;;;;;;32.60;14.98;;;;;;;3.34;67.19;101339.88;1610576;88;25933;-79
2022/02/26 02:03:44;;;;;;;32.98;15.70;;;;;;;3.36;67.18;101348.55;1624043;87;27459;-79
2022/02/26 02:06:11;;;;;;;34.78;15.20;;;;;;;3.35;67.05;101346.88;1626566;87;26077;-78
2022/02/26 02:08:37;;;;;;;26.20;14.68;;;;;;;3.27;66.87;101355.92;1622254;86;25895;-79
2022/02/26 02:11:04;;;;;;;33.10;15.20;;;;;;;3.22;67.06;101359.40;1622403;87;25856;-79
2022/02/26 02:13:30;;;;;;;31.55;15.45;;;;;;;3.17;67.20;101356.73;1623629;86;27019;-79
2022/02/26 02:15:56;;;;;;;37.63;17.75;;;;;;;3.10;67.11;101359.05;1609595;88;28314;-79
2022/02/26 02:18:22;;;;;;;32.15;16.02;;;;;;;3.05;67.23;101366.50;1622339;86;25892;-79
2022/02/26 02:20:49;;;;;;;34.03;14.13;;;;;;;3.01;67.21;101359.77;1607760;88;25765;-78
2022/02/26 02:23:16;;;;;;;31.52;16.90;;;;;;;2.98;67.24;101370.11;1624069;87;25877;-79
2022/02/26 02:25:42;;;;;;;32.15;15.28;;;;;;;2.96;67.44;101369.86;1610959;88;25775;-78
2022/02/26 02:28:09;;;;;;;29.87;14.73;;;;;;;2.95;67.55;101369.52;1619772;86;28265;-79
2022/02/26 02:30:37;;;;;;;35.70;14.50;;;;;;;2.95;67.60;101373.48;1609229;88;25809;-79
2022/02/26 02:33:05;;;;;;;30.62;14.53;;;;;;;2.94;67.61;101375.28;1623733;87;25323;-79
2022/02/26 02:35:35;;;;;;;28.17;14.23;;;;;;;2.90;67.44;101379.60;1609592;88;26225;-78
2022/02/26 02:38:10;;;;;;;31.05;14.47;;;;;;;2.85;67.35;101383.07;1609517;88;25931;-79
2022/02/26 02:40:38;;;;;;;33.10;14.73;;;;;;;2.82;67.36;101391.27;1615404;87;28249;-79
2022/02/26 02:43:06;;;;;;;29.52;14.43;;;;;;;2.75;67.43;101393.53;1610241;87;25618;-79
2022/02/26 02:45:34;;;;;;;31.50;15.30;;;;;;;2.76;67.61;101398.35;1624701;87;25801;-80
2022/02/26 02:48:00;;;;;;;29.65;15.70;;;;;;;2.77;67.95;101395.58;1621020;87;25993;-79
2022/02/26 02:50:27;;;;;;;30.05;14.83;;;;;;;2.77;68.23;101403.52;1612135;87;25810;-78
2022/02/26 02:52:54;;;;;;;32.38;14.58;;;;;;;2.76;68.40;101399.17;1615322;87;27467;-79
2022/02/26 02:55:21;;;;;;;33.90;16.00;;;;;;;2.77;68.59;101406.16;1524228;88;5000864;-79
2022/02/26 02:57:50;;;;;;;33.40;15.25;;;;;;;2.78;68.73;101405.69;1560534;91;26225;-79
2022/02/26 03:00:19;;;;;;;35.98;15.50;;;;;;;2.77;68.81;101416.74;1578030;90;26686;-79
2022/02/26 03:02:46;;;;;;;27.40;13.20;;;;;;;2.78;68.89;101412.30;1580860;89;26572;-79
2022/02/26 03:05:15;;;;;;;28.77;13.05;;;;;;;2.75;68.98;101413.37;1581492;90;27463;-79
2022/02/26 03:07:42;;;;;;;27.00;12.60;;;;;;;2.73;69.20;101418.41;1580711;89;25803;-79
2022/02/26 03:10:09;;;;;;;28.60;12.93;;;;;;;2.72;69.28;101414.92;1581778;89;26521;-78
2022/02/26 03:12:35;;;;;;;28.57;12.07;;;;;;;2.73;69.55;101417.94;1581421;88;26543;-79
2022/02/26 03:15:03;;;;;;;24.07;11.45;;;;;;;2.75;69.83;101422.63;1588079;88;26595;-79
2022/02/26 03:17:29;;;;;;;23.67;12.20;;;;;;;2.77;69.80;101429.97;1588371;90;27461;-78
2022/02/26 03:19:55;;;;;;;27.58;12.20;;;;;;;2.79;69.93;101428.05;1586784;88;26547;-79
2022/02/26 03:22:21;;;;;;;26.77;11.55;;;;;;;2.82;70.06;101434.92;1584733;89;26505;-79
2022/02/26 03:24:48;;;;;;;24.70;10.60;;;;;;;2.83;70.09;101442.73;1587882;90;25992;-79
2022/02/26 03:27:15;;;;;;;29.02;11.45;;;;;;;2.83;70.10;101440.08;1587934;89;25881;-78
2022/02/26 03:29:43;;;;;;;32.55;12.43;;;;;;;2.85;70.17;101440.81;1587092;88;27495;-79
2022/02/26 03:32:10;;;;;;;28.02;11.90;;;;;;;2.85;70.16;101446.09;1586407;90;26501;-79
2022/02/26 03:34:37;;;;;;;24.45;12.37;;;;;;;2.85;70.36;101447.42;1588757;90;25939;-79
2022/02/26 03:37:05;;;;;;;30.68;12.55;;;;;;;2.82;70.23;101448.97;1589190;90;25786;-78
2022/02/26 03:39:32;;;;;;;27.55;12.25;;;;;;;2.82;70.32;101458.22;1587972;88;25917;-79
2022/02/26 03:42:05;;;;;;;30.08;11.90;;;;;;;2.82;70.40;101467.98;1587455;88;28340;-79
2022/02/26 03:44:33;;;;;;;28.75;12.98;;;;;;;2.81;70.57;101470.25;1587814;89;25776;-78
2022/02/26 03:47:02;;;;;;;27.87;11.93;;;;;;;2.83;70.54;101478.45;1581881;90;25821;-79
2022/02/26 03:49:29;;;;;;;24.37;11.40;;;;;;;2.84;70.67;101473.53;1587767;88;25965;-78
2022/02/26 03:51:55;;;;;;;18.07;11.03;;;;;;;2.82;70.67;101481.22;1586771;90;25888;-79
2022/02/26 03:54:22;;;;;;;29.30;12.33;;;;;;;2.78;70.72;101488.52;1587464;88;27528;-79
2022/02/26 03:56:50;;;;;;;20.80;10.60;;;;;;;2.77;70.87;101482.88;1582200;90;25976;-79
2022/02/26 03:59:17;;;;;;;23.32;9.98;;;;;;;2.76;70.93;101490.94;1581713;89;25977;-79
2022/02/26 04:01:44;;;;;;;22.22;11.35;;;;;;;2.73;70.99;101500.42;1582069;90;25825;-79
2022/02/26 04:04:10;;;;;;;23.50;10.63;;;;;;;2.68;71.11;101504.73;1581722;90;26021;-79
2022/02/26 04:06:36;;;;;;;23.18;9.95;;;;;;;2.69;71.35;101509.55;1578260;89;27484;-79
2022/02/26 04:09:04;;;;;;;24.90;10.80;;;;;;;2.67;71.54;101507.02;1581860;89;25814;-79
2022/02/26 04:11:30;;;;;;;21.30;10.88;;;;;;;2.66;71.80;101515.05;1582206;89;25884;-79
2022/02/26 04:13:57;;;;;;;23.80;10.78;;;;;;;2.65;71.82;101515.52;1581922;90;26212;-79
2022/02/26 04:16:23;;;;;;;22.05;10.90;;;;;;;2.67;72.14;101518.08;1576259;90;25898;-80
2022/02/26 04:18:49;;;;;;;23.77;10.95;;;;;;;2.66;72.16;101517.69;1582140;89;28256;-79
2022/02/26 04:21:17;;;;;;;25.52;12.47;;;;;;;2.68;72.27;101519.75;1574599;89;25941;-78
2022/02/26 04:23:44;;;;;;;20.10;11.68;;;;;;;2.67;72.38;101529.98;1569036;90;25910;-79
2022/02/26 04:26:11;;;;;;;23.85;11.57;;;;;;;2.64;72.39;101525.75;1578771;90;26048;-79
2022/02/26 04:28:39;;;;;;;26.30;11.30;;;;;;;2.66;72.37;101533.09;1567265;89;26515;-79
2022/02/26 04:31:06;;;;;;;25.15;11.40;;;;;;;2.65;72.28;101530.07;1568899;90;27478;-79
2022/02/26 04:33:32;;;;;;;20.15;10.82;;;;;;;2.67;72.27;101532.16;1569460;90;25412;-79
2022/02/26 04:35:59;;;;;;;26.85;12.80;;;;;;;2.66;72.28;101527.80;1568460;90;25913;-80
2022/02/26 04:38:29;;;;;;;24.27;12.28;;;;;;;2.64;72.20;101537.66;1569440;89;26653;-79
2022/02/26 04:40:55;;;;;;;24.32;11.45;;;;;;;2.65;72.34;101545.12;1568153;90;26681;-78
2022/02/26 04:43:21;;;;;;;21.95;12.43;;;;;;;2.64;72.14;101543.41;1568021;90;28288;-78
2022/02/26 04:45:48;;;;;;;26.85;13.10;;;;;;;2.64;72.24;101544.73;1569110;90;25827;-79
2022/02/26 04:48:14;;;;;;;23.73;10.93;;;;;;;2.65;72.21;101554.38;1563784;89;26589;-78
2022/02/26 04:50:41;;;;;;;26.97;13.15;;;;;;;2.66;71.96;101555.58;1569788;89;25848;-79
2022/02/26 04:53:07;;;;;;;23.12;11.88;;;;;;;2.64;71.70;101554.00;1565913;90;25344;-78
2022/02/26 04:55:33;;;;;;;27.82;12.93;;;;;;;2.61;71.52;101555.56;1567152;90;27497;-80
2022/02/26 04:57:59;;;;;;;19.82;11.60;;;;;;;2.57;71.43;101560.68;1571734;90;25908;-78
2022/02/26 05:00:26;;;;;;;35.40;12.47;;;;;;;2.54;71.42;101563.57;1571796;89;25897;-79
2022/02/26 05:02:53;;;;;;;23.40;11.70;;;;;;;2.50;71.45;101571.36;1573622;89;26066;-81
2022/02/26 05:05:19;;;;;;;28.38;11.75;;;;;;;2.45;71.47;101571.70;1568099;90;25884;-79
2022/02/26 05:07:45;;;;;;;23.52;11.50;;;;;;;2.42;71.31;101575.05;1563203;90;28454;-78
2022/02/26 05:10:13;;;;;;;26.42;11.73;;;;;;;2.38;71.37;101582.34;1572618;90;25988;-79
2022/02/26 05:12:39;;;;;;;22.07;10.93;;;;;;;2.38;71.37;101584.12;1574767;90;26051;-78
2022/02/26 05:15:06;;;;;;;24.15;11.48;;;;;;;2.33;71.49;101592.42;1575702;89;26636;-78
2022/02/26 05:17:32;;;;;;;29.63;11.78;;;;;;;2.28;71.68;101591.89;1573963;89;25881;-78
2022/02/26 05:19:59;;;;;;;20.72;10.82;;;;;;;2.25;71.96;101596.91;1578456;89;28341;-79
2022/02/26 05:22:25;;;;;;;23.38;11.63;;;;;;;2.21;72.12;101601.20;1581847;90;25918;-78
2022/02/26 05:24:51;;;;;;;21.50;11.60;;;;;;;2.19;72.35;101600.47;1570006;89;25881;-78
2022/02/26 05:27:17;;;;;;;24.70;11.43;;;;;;;2.18;72.54;101606.22;1571683;89;26070;-78
2022/02/26 05:29:43;;;;;;;24.27;12.95;;;;;;;2.15;72.61;101609.10;1576496;89;25872;-79
2022/02/26 05:32:12;;;;;;;25.50;12.53;;;;;;;2.13;72.77;101620.27;1581744;90;27432;-79
2022/02/26 05:34:38;;;;;;;29.18;14.05;;;;;;;2.14;72.92;101627.22;1573563;90;25867;-79
2022/02/26 05:37:04;;;;;;;26.62;13.88;;;;;;;2.12;73.09;101630.92;1581452;90;26010;-78
2022/02/26 05:39:30;;;;;;;27.22;13.15;;;;;;;2.13;73.22;101636.59;1581994;89;26578;-79
2022/02/26 05:41:57;;;;;;;25.30;13.30;;;;;;;2.13;73.31;101637.91;1571960;89;26554;-78
2022/02/26 05:44:26;;;;;;;27.93;11.78;;;;;;;2.11;73.40;101643.31;1573220;89;27468;-79
2022/02/26 05:46:52;;;;;;;24.92;12.35;;;;;;;2.12;73.56;101648.09;1578968;90;26560;-78
2022/02/26 05:49:19;;;;;;;30.97;13.13;;;;;;;2.11;73.67;101648.59;1582199;89;25842;-78
2022/02/26 05:51:46;;;;;;;27.65;13.98;;;;;;;2.13;73.86;101651.13;1579841;90;26011;-80
2022/02/26 05:54:12;;;;;;;29.90;14.07;;;;;;;2.13;73.98;101659.91;1578277;89;26593;-78
2022/02/26 05:56:39;;;;;;;33.28;13.80;;;;;;;2.15;74.22;101662.43;1577262;90;27569;-78
2022/02/26 05:59:05;;;;;;;32.40;15.53;;;;;;;2.15;74.32;101671.68;1577510;89;25898;-78
2022/02/26 06:01:31;;;;;;;26.68;13.80;;;;;;;2.15;74.45;101675.17;1574543;90;25851;-78
2022/02/26 06:03:58;;;;;;;30.05;14.43;;;;;;;2.18;74.61;101671.48;1579516;90;25882;-78
2022/02/26 06:06:24;;;;;;;29.75;13.70;;;;;;;2.21;74.83;101673.89;1577030;89;25825;-79
2022/02/26 06:08:50;;;;;;;34.90;14.75;;;;;;;2.22;74.83;101674.28;1580233;89;27458;-78
2022/02/26 06:11:16;;;;;;;35.48;14.78;;;;;;;2.26;75.11;101677.07;1581999;90;25815;-78
2022/02/26 06:13:42;;;;;;;28.35;15.08;;;;;;;2.29;75.15;101686.09;1582115;90;25976;-79
2022/02/26 06:16:10;;;;;;;37.90;17.87;;;;;;;2.32;75.18;101687.20;1579084;90;25893;-78
2022/02/26 06:18:36;;;;;;;32.60;14.68;;;;;;;2.37;75.31;101697.47;1577558;89;25912;-79
2022/02/26 06:21:02;;;;;;;22.17;12.18;;;;;;;2.37;75.31;101702.75;1581742;90;27562;-79
2022/02/26 06:23:29;;;;;;;29.70;14.40;;;;;;;2.37;75.17;101705.39;1582106;90;26725;-79
2022/02/26 06:25:55;;;;;;;24.32;12.23;;;;;;;2.35;75.25;101714.27;1581997;90;26535;-79
2022/02/26 06:28:21;;;;;;;25.43;12.05;;;;;;;2.35;75.21;101716.91;1581191;89;25871;-81
2022/02/26 06:30:47;;;;;;;23.87;13.20;;;;;;;2.37;75.37;101723.91;1582459;89;26387;-81
2022/02/26 06:33:14;;;;;;;23.98;13.40;;;;;;;2.41;75.60;101731.98;1582171;90;27494;-81
2022/02/26 06:35:41;;;;;;;30.57;15.72;;;;;;;2.46;75.86;101736.48;1579442;89;25920;-80
2022/02/26 06:38:07;;;;;;;27.82;15.83;;;;;;;2.50;75.90;101743.25;1583291;89;25663;-81
2022/02/26 06:40:34;;;;;;;29.75;16.87;;;;;;;2.54;76.01;101743.41;1578619;89;26165;-81
2022/02/26 06:43:02;;;;;;;36.85;16.82;;;;;;;2.55;76.16;101753.87;1582110;90;25866;-81
2022/02/26 06:45:28;;;;;;;34.08;17.02;;;;;;;2.54;76.27;101754.84;1582370;89;27509;-81
2022/02/26 06:47:55;;;;;;;36.05;16.85;;;;;;;2.57;76.27;101756.39;1582304;89;26515;-81
2022/02/26 06:50:21;;;;;;;32.70;16.85;;;;;;;2.60;76.48;101758.37;1578249;89;26457;-80
2022/02/26 06:52:48;;;;;;;35.40;17.70;;;;;;;2.65;76.57;101765.98;1581883;89;25946;-80
2022/02/26 06:55:14;;;;;;;32.83;17.52;;;;;;;2.67;76.39;101766.25;1573978;90;25876;-81
2022/02/26 06:57:41;;;;;;;30.40;16.27;;;;;;;2.70;76.57;101765.16;1580682;89;27485;-80
2022/02/26 07:00:10;;;;;;;30.02;17.07;;;;;;;2.71;76.57;101763.75;1582611;89;25388;-81
2022/02/26 07:02:37;;;;;;;29.37;16.15;;;;;;;2.72;76.64;101773.83;1582162;90;25808;-82
2022/02/26 07:05:05;;;;;;;29.82;17.25;;;;;;;2.73;76.66;101783.01;1582074;90;25814;-81
2022/02/26 07:07:31;;;;;;;33.23;16.05;;;;;;;2.76;76.88;101779.31;1582472;90;25954;-80
2022/02/26 07:09:57;;;;;;;32.48;16.90;;;;;;;2.79;77.06;101779.92;1574671;89;27566;-81
2022/02/26 07:12:24;;;;;;;36.23;18.82;;;;;;;2.83;76.96;101782.72;1582392;90;26618;-81
2022/02/26 07:14:50;;;;;;;35.63;18.27;;;;;;;2.87;76.92;101786.84;1582485;90;25912;-81
2022/02/26 07:17:17;;;;;;;31.48;16.05;;;;;;;2.92;77.07;101790.48;1582504;89;26033;-80
2022/02/26 07:19:43;;;;;;;34.73;17.20;;;;;;;2.96;77.06;101791.48;1582173;89;25893;-81
2022/02/26 07:22:09;;;;;;;30.90;16.15;;;;;;;2.99;77.21;101800.52;1582530;89;27498;-79
2022/02/26 07:24:35;;;;;;;31.10;15.93;;;;;;;3.01;77.43;101797.31;1582322;89;25995;-80
2022/02/26 07:27:02;;;;;;;29.50;15.93;;;;;;;3.07;77.23;101803.48;1575489;90;25808;-80
2022/02/26 07:29:29;;;;;;;29.30;15.68;;;;;;;3.13;77.25;101812.30;1569088;89;26208;-81
2022/02/26 07:31:55;;;;;;;29.92;16.42;;;;;;;3.18;77.15;101809.80;1576462;90;25828;-82
2022/02/26 07:34:21;;;;;;;30.60;15.60;;;;;;;3.23;77.23;101807.18;1570574;90;28281;-81
2022/02/26 07:36:48;;;;;;;33.33;15.93;;;;;;;3.31;77.21;101810.14;1574105;90;25959;-80
2022/02/26 07:39:14;;;;;;;29.67;15.10;;;;;;;3.37;77.22;101811.49;1566673;89;25913;-81
2022/02/26 07:41:40;;;;;;;29.15;15.10;;;;;;;3.42;77.14;101812.84;1575010;89;25831;-81
2022/02/26 07:44:07;;;;;;;24.12;15.23;;;;;;;3.46;77.22;101813.48;1569926;90;25865;-81
2022/02/26 07:46:33;;;;;;;28.80;16.02;;;;;;;3.51;77.30;101820.13;1576217;89;28269;-82
2022/02/26 07:48:59;;;;;;;27.30;14.60;;;;;;;3.58;77.47;101824.49;1582657;89;25884;-80
2022/02/26 07:51:25;;;;;;;28.25;16.23;;;;;;;3.66;77.42;101827.42;1580368;90;25823;-82
2022/02/26 07:53:52;;;;;;;35.40;18.90;;;;;;;3.74;77.49;101828.55;1582585;90;25955;-82
2022/02/26 07:56:18;;;;;;;31.57;17.27;;;;;;;3.85;77.54;101835.23;1582431;90;25920;-81
2022/02/26 07:58:45;;;;;;;33.98;17.27;;;;;;;3.94;77.63;101836.36;1582272;89;27701;-81
2022/02/26 08:01:11;;;;;;;35.45;18.87;;;;;;;4.02;77.54;101841.92;1569791;90;25894;-81
2022/02/26 08:03:37;;;;;;;30.70;16.85;;;;;;;4.09;77.32;101848.47;1563685;90;25439;-81
2022/02/26 08:06:03;;;;;;;31.35;17.15;;;;;;;4.13;77.22;101855.73;1561792;90;26615;-81
2022/02/26 08:08:29;;;;;;;36.48;18.65;;;;;;;4.13;77.06;101859.70;1568039;90;25529;-81
2022/02/26 08:10:56;;;;;;;37.93;17.35;;;;;;;4.15;77.04;101866.56;1566998;89;28288;-82
2022/02/26 08:13:22;;;;;;;31.90;16.37;;;;;;;4.23;77.16;101863.35;1573204;90;26487;-81
2022/02/26 08:15:49;;;;;;;42.05;20.45;;;;;;;4.31;77.41;101866.27;1570359;90;25368;-81
2022/02/26 08:18:15;;;;;;;34.50;19.23;;;;;;;4.34;76.96;101864.72;1582437;89;25899;-81
2022/02/26 08:20:41;;;;;;;29.45;17.15;;;;;;;4.38;77.00;101872.34;1575156;90;25880;-81
2022/02/26 08:23:07;;;;;;;27.25;14.98;;;;;;;4.40;76.97;101874.39;1573166;89;27490;-81
2022/02/26 08:25:34;;;;;;;25.80;15.23;;;;;;;4.39;76.87;101874.48;1575015;90;25854;-80
2022/02/26 08:28:00;;;;;;;28.65;14.55;;;;;;;4.38;76.74;101876.31;1582303;90;25856;-82
2022/02/26 08:30:27;;;;;;;22.02;14.15;;;;;;;4.40;76.85;101881.02;1578789;89;25859;-81
2022/02/26 08:32:53;;;;;;;27.00;15.68;;;;;;;4.38;77.06;101884.75;1574707;90;26124;-83
2022/02/26 08:35:19;;;;;;;23.62;14.85;;;;;;;4.35;77.09;101884.96;1582395;90;27469;-81
2022/02/26 08:37:46;;;;;;;21.68;14.47;;;;;;;4.35;76.89;101884.48;1572424;89;26080;-82
2022/02/26 08:40:14;;;;;;;29.10;15.68;;;;;;;4.39;77.09;101887.27;1570406;89;26392;-82
2022/02/26 08:42:40;;;;;;;33.20;15.40;;;;;;;4.48;77.20;101899.00;1572223;90;26570;-82
2022/02/26 08:45:09;;;;;;;27.98;13.58;;;;;;;4.46;77.11;101906.23;1572109;90;26607;-81
2022/02/26 08:47:36;;;;;;;26.55;15.18;;;;;;;4.42;77.09;101908.28;1582627;89;27480;-81
2022/02/26 08:50:09;;;;;;;26.05;15.20;;;;;;;4.43;77.02;101913.08;1581319;89;25791;-81
2022/02/26 08:52:35;;;;;;;32.58;15.68;;;;;;;4.44;77.11;101913.45;1582007;90;25855;-81
2022/02/26 08:55:02;;;;;;;25.62;15.55;;;;;;;4.47;77.12;101915.39;1577543;90;25793;-81
2022/02/26 08:57:28;;;;;;;27.73;15.93;;;;;;;4.52;77.19;101916.38;1577261;90;25950;-82
2022/02/26 08:59:54;;;;;;;27.70;16.15;;;;;;;4.55;77.02;101918.34;1570702;89;28320;-81
2022/02/26 09:02:21;;;;;;;28.50;16.07;;;;;;;4.60;77.28;101925.44;1573392;89;25843;-82
2022/02/26 09:04:47;;;;;;;24.98;14.63;;;;;;;4.72;77.29;101928.14;1571873;90;26006;-81
2022/02/26 09:07:13;;;;;;;26.37;14.20;;;;;;;4.81;77.37;101930.95;1578508;90;25930;-81
2022/02/26 09:09:40;;;;;;;25.62;15.30;;;;;;;4.84;77.22;101934.67;1581975;89;26201;-81
2022/02/26 09:12:07;;;;;;;22.17;13.72;;;;;;;4.92;77.16;101943.40;1582194;90;27554;-83
2022/02/26 09:14:33;;;;;;;24.27;14.50;;;;;;;5.00;77.09;101943.17;1582092;90;25983;-81
2022/02/26 09:16:59;;;;;;;25.02;14.43;;;;;;;5.06;76.89;101948.00;1582557;89;25329;-81
2022/02/26 09:19:26;;;;;;;26.87;15.55;;;;;;;5.11;76.96;101955.11;1582830;89;25925;-81
2022/02/26 09:21:52;;;;;;;23.12;13.95;;;;;;;5.17;77.00;101959.98;1582787;89;25859;-82
2022/02/26 09:24:18;;;;;;;21.40;13.50;;;;;;;5.24;76.51;101962.97;1582302;90;28308;-81
2022/02/26 09:26:45;;;;;;;22.85;13.62;;;;;;;5.29;76.36;101962.14;1569172;90;25932;-81
2022/02/26 09:29:11;;;;;;;26.07;14.10;;;;;;;5.33;76.20;101968.43;1582216;89;25935;-81
2022/02/26 09:31:40;;;;;;;20.55;12.35;;;;;;;5.38;76.32;101968.07;1582765;90;25867;-81
2022/02/26 09:34:05;;;;;;;23.20;13.53;;;;;;;5.48;76.49;101973.02;1562549;90;26339;-82
2022/02/26 09:36:31;;;;;;;30.00;14.98;;;;;;;5.58;76.08;101967.84;1582572;89;27478;-82
2022/02/26 09:38:58;;;;;;;22.58;14.03;;;;;;;5.68;75.87;101975.44;1582568;89;25840;-83
2022/02/26 09:41:24;;;;;;;24.18;14.63;;;;;;;5.77;75.51;101973.38;1582288;89;25919;-83
2022/02/26 09:43:50;;;;;;;19.27;11.83;;;;;;;5.83;75.48;101969.75;1582241;89;26048;-83
2022/02/26 09:46:17;;;;;;;18.07;11.85;;;;;;;5.90;75.28;101978.12;1582489;90;25944;-82
2022/02/26 09:48:43;;;;;;;22.98;11.97;;;;;;;5.96;75.26;101980.28;1577652;89;27576;-83
2022/02/26 09:51:09;;;;;;;22.15;12.70;;;;;;;6.02;74.99;101984.62;1576002;89;26681;-80
2022/02/26 09:53:36;;;;;;;23.73;13.58;;;;;;;6.04;74.80;101989.33;1580640;89;26257;-83
2022/02/26 09:56:02;;;;;;;26.48;13.55;;;;;;;6.06;74.66;101991.86;1582694;90;25951;-80
2022/02/26 09:58:29;;;;;;;20.92;11.60;;;;;;;6.06;74.85;101995.37;1578652;89;25916;-81
2022/02/26 10:00:55;;;;;;;23.50;12.55;;;;;;;6.07;74.17;101997.55;1582241;90;28302;-82
2022/02/26 10:03:35;;;;;;;22.25;12.78;;;;;;;6.00;73.99;101995.87;1582057;90;25848;-81
2022/02/26 10:06:17;;;;;;;20.00;11.15;;;;;;;5.95;73.80;102002.03;1555038;90;25585;-81
2022/02/26 10:08:53;;;;;;;21.45;11.70;;;;;;;5.91;73.86;102005.91;1557675;90;26541;-80
2022/02/26 10:11:35;;;;;;;17.30;10.40;;;;;;;5.84;73.67;102017.98;1557117;91;25906;-81
2022/02/26 10:14:06;;;;;;;18.90;11.68;;;;;;;5.83;73.58;102018.95;1555106;91;27520;-82
2022/02/26 10:16:53;;;;;;;20.68;10.82;;;;;;;5.84;73.67;102018.47;1557806;91;25994;-80
2022/02/26 10:19:32;;;;;;;16.48;9.78;;;;;;;5.85;73.70;102022.36;1556115;90;25778;-81
2022/02/26 10:22:02;;;;;;;17.98;10.13;;;;;;;5.85;73.10;102025.49;1574172;90;25941;-80
2022/02/26 10:24:30;;;;;;;20.57;10.90;;;;;;;5.85;73.02;102021.03;1573980;90;25772;-81
2022/02/26 10:27:03;;;;;;;21.10;11.03;;;;;;;5.88;73.23;102026.59;1565309;90;27669;-80
2022/02/26 10:29:29;;;;;;;17.05;9.93;;;;;;;5.91;73.45;102030.31;1499532;93;26653;-82
2022/02/26 10:31:59;;;;;;;16.75;10.23;;;;;;;6.01;73.14;102029.45;1544302;91;25993;-80
2022/02/26 10:34:33;;;;;;;16.25;9.60;;;;;;;6.04;72.75;102030.56;1548941;91;26633;-81
2022/02/26 10:37:07;;;;;;;19.92;11.05;;;;;;;6.07;72.60;102038.78;1563232;90;26842;-82
2022/02/26 10:39:39;;;;;;;13.90;8.88;;;;;;;6.09;72.80;102027.02;1571520;89;27599;-81
2022/02/26 10:42:09;;;;;;;18.80;9.23;;;;;;;6.14;72.25;102021.34;1574205;90;26414;-80
2022/02/26 10:44:36;;;;;;;19.42;12.07;;;;;;;6.14;72.15;102034.64;1569630;90;25821;-83
2022/02/26 10:47:14;;;;;;;22.82;11.15;;;;;;;6.18;72.39;102026.77;1571207;90;26622;-80
2022/02/26 10:49:45;;;;;;;15.65;9.70;;;;;;;6.23;72.33;102027.25;1553420;90;26168;-81
2022/02/26 10:52:13;;;;;;;;;;;;;;;6.30;71.96;102032.92;1545433;92;28300;-80
2022/02/26 10:54:41;;;;;;;18.12;10.03;;;;;;;6.33;71.81;102032.69;1574764;90;25885;-81
2022/02/26 10:57:11;;;;;;;16.87;9.40;;;;;;;6.30;71.32;102032.45;1575699;90;26565;-81
2022/02/26 10:59:43;;;;;;;17.07;9.40;;;;;;;6.34;71.60;102033.89;1575486;89;25881;-81
2022/02/26 11:02:21;;;;;;;13.30;8.05;;;;;;;6.39;71.57;102033.04;1575185;90;25828;-81
2022/02/26 11:04:44;;;;;;;13.60;8.15;;;;;;;6.44;70.65;102033.97;1574267;89;26572;-80
2022/02/26 11:07:11;;;;;;;15.35;7.62;;;;;;;6.49;71.41;102038.44;1575563;89;25966;-80
2022/02/26 11:09:40;;;;;;;12.80;6.55;;;;;;;6.52;70.61;102043.02;1575201;89;26308;-80
2022/02/26 11:12:11;;;;;;;16.20;8.95;;;;;;;6.58;70.93;102044.35;1568766;90;25871;-82
2022/02/26 11:14:41;;;;;;;20.17;11.68;;;;;;;6.65;70.93;102039.71;1561932;90;25891;-80
2022/02/26 11:17:11;;;;;;;19.07;9.58;;;;;;;6.75;70.88;102033.16;1579672;90;27490;-81